Mill Creek, West Virginia
Current Conditions -  °F | °C
As of 6:51 AM on Tuesday 27 Jan 2015 (Local Time) from KEKN Reporting Station
Overcast Overcast  
Wind Chill: -11°   Ceiling: 2500
Heat Index: -7°   Visibility: 10mi
Dew Point: -11°   Wind: 5mph
Humidity: 77%   Direction: 260°W
Pressure: 29.81"   Gusts: NA
Location:  38.73°N, 79.97°W
Report Text: KEKN 271151Z AUTO 26004KT 10SM OVC025 M07/M11 A2981 RMK AO2 SNE05 SLP125 P0000 60000 70020 T10721106 11050 21072 53006 TSNO
Loading
Personal Weather Stations






























Interactive Weather Map New forecast layout! Learn more

10-Day Weather Forecast

Advertisements
Track Severe Weather on mobile